createdAt,value
2023-11-13T00:00:32.747Z,14.50
2023-11-13T00:03:20.662Z,15.20
2023-11-13T00:05:48.982Z,14.80
2023-11-13T00:08:16.882Z,15.60
2023-11-13T00:10:47.142Z,15.50
2023-11-13T00:13:15.496Z,14.70
2023-11-13T00:15:43.956Z,15.20
2023-11-13T00:18:12.008Z,14.50
2023-11-13T00:20:40.125Z,15.30
2023-11-13T00:23:07.955Z,15.00
2023-11-13T00:25:36.124Z,14.50
2023-11-13T00:28:04.591Z,13.70
2023-11-13T00:30:32.679Z,12.80
2023-11-13T00:33:00.705Z,12.20
2023-11-13T00:35:29.053Z,11.90
2023-11-13T00:37:58.888Z,13.00
2023-11-13T00:40:27.353Z,13.00
2023-11-13T00:42:55.863Z,11.00
2023-11-13T00:45:23.740Z,11.20
2023-11-13T00:47:51.621Z,11.40
2023-11-13T00:50:19.862Z,10.90
2023-11-13T00:52:48.356Z,11.00
2023-11-13T00:55:16.456Z,11.50
2023-11-13T00:57:44.824Z,12.10
2023-11-13T01:00:14.632Z,11.50
2023-11-13T01:02:42.885Z,12.00
2023-11-13T01:05:13.044Z,12.40
2023-11-13T01:07:41.166Z,12.40
2023-11-13T01:10:10.196Z,12.80
2023-11-13T01:12:38.221Z,12.70
2023-11-13T01:15:08.428Z,13.40
2023-11-13T01:17:37.291Z,13.20
2023-11-13T01:20:07.494Z,13.80
2023-11-13T01:22:35.509Z,13.00
2023-11-13T01:25:04.466Z,13.10
2023-11-13T01:27:32.792Z,14.20
2023-11-13T01:30:00.759Z,12.90
2023-11-13T01:32:28.808Z,12.20
2023-11-13T01:34:57.600Z,12.10
2023-11-13T01:37:25.628Z,12.30
2023-11-13T01:39:54.550Z,12.00
2023-11-13T01:44:52.349Z,11.90
2023-11-13T01:49:48.390Z,11.30
2023-11-13T01:52:16.328Z,10.70
2023-11-13T01:54:44.672Z,10.50
2023-11-13T01:57:13.313Z,10.70
2023-11-13T01:59:43.800Z,9.80
2023-11-13T02:02:12.341Z,9.20
2023-11-13T02:04:40.768Z,9.50
2023-11-13T02:07:09.009Z,9.20
2023-11-13T02:09:37.576Z,9.00
2023-11-13T02:12:06.479Z,7.70
2023-11-13T02:14:34.524Z,7.20
2023-11-13T02:17:04.417Z,6.60
2023-11-13T02:19:33.495Z,7.20
2023-11-13T02:22:02.252Z,6.70
2023-11-13T02:24:30.637Z,6.20
2023-11-13T02:26:59.542Z,6.40
2023-11-13T02:29:28.167Z,6.60
2023-11-13T02:31:57.372Z,6.60
2023-11-13T02:34:25.821Z,5.60
2023-11-13T02:36:54.130Z,6.30
2023-11-13T02:39:22.794Z,6.50
2023-11-13T02:41:53.326Z,7.40
2023-11-13T02:44:21.260Z,7.10
2023-11-13T02:46:49.933Z,7.40
2023-11-13T02:49:18.326Z,7.70
2023-11-13T02:51:46.306Z,7.70
2023-11-13T02:54:15.310Z,8.30
2023-11-13T02:56:43.421Z,8.30
2023-11-13T02:59:11.234Z,8.40
2023-11-13T03:01:39.760Z,8.00
2023-11-13T03:04:08.006Z,8.60
2023-11-13T03:06:36.243Z,8.50
2023-11-13T03:09:05.962Z,8.90
2023-11-13T03:11:34.075Z,8.60
2023-11-13T03:14:02.032Z,9.20
2023-11-13T03:16:30.025Z,9.90
2023-11-13T03:18:58.301Z,8.70
2023-11-13T03:21:26.121Z,9.60
2023-11-13T03:23:53.935Z,9.90
2023-11-13T03:26:22.142Z,9.80
2023-11-13T03:28:50.005Z,9.90
2023-11-13T03:31:18.818Z,10.10
2023-11-13T03:33:47.292Z,10.00
2023-11-13T03:36:15.145Z,10.10
2023-11-13T03:38:43.170Z,9.80
2023-11-13T03:41:11.463Z,10.70
2023-11-13T03:43:39.346Z,10.80
2023-11-13T03:46:07.266Z,9.90
2023-11-13T03:48:35.281Z,10.00
2023-11-13T03:51:03.705Z,10.10
2023-11-13T03:53:31.510Z,10.20
2023-11-13T03:55:59.868Z,9.50
2023-11-13T03:58:27.783Z,9.30
2023-11-13T04:00:55.760Z,9.90
2023-11-13T04:03:24.068Z,9.30
2023-11-13T04:05:52.233Z,8.70
2023-11-13T04:08:20.099Z,8.90
2023-11-13T04:10:49.311Z,8.40
2023-11-13T04:13:20.123Z,8.00
2023-11-13T04:15:48.353Z,8.50
2023-11-13T04:18:16.693Z,8.10
2023-11-13T04:20:45.513Z,8.40
2023-11-13T04:23:13.430Z,8.10
2023-11-13T04:25:47.243Z,7.80
2023-11-13T04:28:15.777Z,7.80
2023-11-13T04:30:44.000Z,7.40
2023-11-13T04:33:12.369Z,7.20
2023-11-13T04:35:40.821Z,7.20
2023-11-13T04:38:09.047Z,7.20
2023-11-13T04:40:37.525Z,7.20
2023-11-13T04:43:07.327Z,6.50
2023-11-13T04:45:36.556Z,6.30
2023-11-13T04:48:06.405Z,6.10
2023-11-13T04:50:34.357Z,6.40
2023-11-13T04:53:02.362Z,6.70
2023-11-13T04:55:32.171Z,6.20
2023-11-13T04:58:00.333Z,6.90
2023-11-13T05:00:28.537Z,6.40
2023-11-13T05:02:57.038Z,6.20
2023-11-13T05:05:26.951Z,5.70
2023-11-13T05:07:55.053Z,6.00
2023-11-13T05:10:23.236Z,5.90
2023-11-13T05:12:51.256Z,5.70
2023-11-13T05:15:19.293Z,5.70
2023-11-13T05:17:47.816Z,5.60
2023-11-13T05:20:17.467Z,5.70
2023-11-13T05:22:45.577Z,5.20
2023-11-13T05:25:13.758Z,5.40
2023-11-13T05:27:42.150Z,5.50
2023-11-13T05:30:11.309Z,5.30
2023-11-13T05:32:39.407Z,5.30
2023-11-13T05:35:07.944Z,5.50
2023-11-13T05:37:35.947Z,5.40
2023-11-13T05:40:07.041Z,5.00
2023-11-13T05:42:38.451Z,4.60
2023-11-13T05:45:08.558Z,5.00
2023-11-13T05:47:36.388Z,5.00
2023-11-13T05:50:05.727Z,4.50
2023-11-13T05:55:01.566Z,4.90
2023-11-13T05:57:29.672Z,5.00
2023-11-13T05:59:57.809Z,4.90
2023-11-13T06:02:25.687Z,4.50
2023-11-13T06:04:53.881Z,4.40
2023-11-13T06:07:21.936Z,5.10
2023-11-13T06:09:49.761Z,4.80
2023-11-13T06:12:17.787Z,5.20
2023-11-13T06:14:46.548Z,4.50
2023-11-13T06:17:16.523Z,4.80
2023-11-13T06:19:44.607Z,4.60
2023-11-13T06:22:12.854Z,4.90
2023-11-13T06:24:40.891Z,4.30
2023-11-13T06:27:09.091Z,4.80
2023-11-13T06:29:37.419Z,4.80
2023-11-13T06:32:06.546Z,5.20
2023-11-13T06:34:35.221Z,5.00
2023-11-13T06:37:03.804Z,5.00
2023-11-13T06:39:31.688Z,5.20
2023-11-13T06:42:00.042Z,4.80
2023-11-13T06:44:28.506Z,5.10
2023-11-13T06:46:56.746Z,5.30
2023-11-13T06:49:25.479Z,5.30
2023-11-13T06:51:53.785Z,4.50
2023-11-13T06:54:22.180Z,5.00
2023-11-13T06:56:50.198Z,4.60
2023-11-13T06:59:19.996Z,4.50
2023-11-13T07:01:49.279Z,4.50
2023-11-13T07:06:46.885Z,4.50
2023-11-13T07:09:15.937Z,4.30
2023-11-13T07:11:45.800Z,4.40
2023-11-13T07:14:14.622Z,4.30
2023-11-13T07:16:43.615Z,4.10
2023-11-13T07:19:14.941Z,4.30
2023-11-13T07:21:43.221Z,4.10
2023-11-13T07:24:11.954Z,3.80
2023-11-13T07:26:43.399Z,3.60
2023-11-13T07:29:16.494Z,3.80
2023-11-13T07:34:12.736Z,3.80
2023-11-13T07:36:40.706Z,3.90
2023-11-13T07:39:11.422Z,3.70
2023-11-13T07:41:39.459Z,4.30
2023-11-13T07:44:10.385Z,4.00
2023-11-13T07:46:39.077Z,3.70
2023-11-13T07:51:38.261Z,4.10
2023-11-13T07:54:06.262Z,3.90
2023-11-13T07:56:34.790Z,3.90
2023-11-13T07:59:08.938Z,4.00
2023-11-13T08:01:39.052Z,4.00
2023-11-13T08:04:08.611Z,3.70
2023-11-13T08:06:36.939Z,4.00
2023-11-13T08:09:10.157Z,4.40
2023-11-13T08:11:39.324Z,4.40
2023-11-13T08:14:07.247Z,4.50
2023-11-13T08:16:35.647Z,4.00
2023-11-13T08:19:04.396Z,4.00
2023-11-13T08:21:32.711Z,4.00
2023-11-13T08:24:04.090Z,3.30
2023-11-13T08:26:34.257Z,3.90
2023-11-13T08:29:02.166Z,3.90
2023-11-13T08:31:32.474Z,3.90
2023-11-13T08:34:00.981Z,3.80
2023-11-13T08:36:29.721Z,3.40
2023-11-13T08:38:57.716Z,3.20
2023-11-13T08:41:26.102Z,3.60
2023-11-13T08:43:54.296Z,3.70
2023-11-13T08:46:23.293Z,3.70
2023-11-13T08:48:52.299Z,3.70
2023-11-13T08:51:29.124Z,3.90
2023-11-13T08:54:01.611Z,3.40
2023-11-13T08:56:29.679Z,3.40
2023-11-13T08:58:57.612Z,3.60
2023-11-13T09:01:27.612Z,3.70
2023-11-13T09:03:56.321Z,3.90
2023-11-13T09:06:24.534Z,3.70
2023-11-13T09:08:55.355Z,3.90
2023-11-13T09:11:28.009Z,3.50
2023-11-13T09:14:01.530Z,3.80
2023-11-13T09:16:30.000Z,3.70
2023-11-13T09:19:00.631Z,4.30
2023-11-13T09:21:30.181Z,4.00
2023-11-13T09:23:59.353Z,3.30
2023-11-13T09:26:27.776Z,3.60
2023-11-13T09:28:56.801Z,3.80
2023-11-13T09:31:25.017Z,4.10
2023-11-13T09:38:27.578Z,4.50
2023-11-13T09:41:00.641Z,4.90
2023-11-13T09:43:35.519Z,4.40
2023-11-13T09:46:05.525Z,3.90
2023-11-13T09:48:45.560Z,4.10
2023-11-13T09:51:27.221Z,3.60
2023-11-13T09:54:00.510Z,3.60
2023-11-13T09:56:31.018Z,3.20
2023-11-13T09:59:01.111Z,3.30
2023-11-13T10:01:30.854Z,3.00
2023-11-13T10:03:59.548Z,3.20
2023-11-13T10:06:31.415Z,3.40
2023-11-13T10:08:59.256Z,3.00
2023-11-13T10:11:30.874Z,2.50
2023-11-13T10:14:18.178Z,2.60
2023-11-13T10:16:58.104Z,2.70
2023-11-13T10:19:26.960Z,2.30
2023-11-13T10:21:58.738Z,2.30
2023-11-13T10:24:35.262Z,2.20
2023-11-13T10:27:13.871Z,2.30
2023-11-13T10:29:43.236Z,2.30
2023-11-13T10:34:47.125Z,1.90
2023-11-13T10:37:19.572Z,1.70
2023-11-13T10:39:49.177Z,1.50
2023-11-13T10:42:25.674Z,1.70
2023-11-13T10:44:58.213Z,1.50
2023-11-13T10:47:36.692Z,1.30
2023-11-13T10:50:17.346Z,1.50
2023-11-13T10:52:49.045Z,1.60
2023-11-13T10:55:20.652Z,1.80
2023-11-13T10:57:48.656Z,1.90
2023-11-13T11:00:17.377Z,1.70
2023-11-13T11:02:52.622Z,1.70
2023-11-13T11:05:27.491Z,1.80
2023-11-13T11:07:57.503Z,2.00
2023-11-13T11:10:27.422Z,2.00
2023-11-13T11:13:02.571Z,2.00
2023-11-13T11:15:54.227Z,2.00
2023-11-13T11:18:35.013Z,2.10
2023-11-13T11:21:10.802Z,1.90
2023-11-13T11:23:53.089Z,2.30
2023-11-13T11:26:21.223Z,1.80
2023-11-13T11:28:54.027Z,2.10
2023-11-13T11:31:31.904Z,1.90
2023-11-13T11:34:00.831Z,1.70
2023-11-13T11:36:36.186Z,2.00
2023-11-13T11:39:24.902Z,1.70
2023-11-13T11:41:54.610Z,1.90
2023-11-13T11:44:23.651Z,1.70
2023-11-13T11:49:43.098Z,1.60
2023-11-13T11:52:13.369Z,1.40
2023-11-13T11:54:41.763Z,1.40
2023-11-13T11:57:11.913Z,1.50
2023-11-13T11:59:41.081Z,1.50
2023-11-13T12:04:38.482Z,1.60
2023-11-13T12:09:44.500Z,1.70
2023-11-13T12:12:13.434Z,1.70
2023-11-13T12:14:42.727Z,1.50
2023-11-13T12:17:12.231Z,2.00
2023-11-13T12:19:44.711Z,1.60
2023-11-13T12:22:13.171Z,1.70
2023-11-13T12:24:42.076Z,2.10
2023-11-13T12:27:10.524Z,1.80
2023-11-13T12:29:38.984Z,1.80
2023-11-13T12:32:13.301Z,1.90
2023-11-13T12:37:30.612Z,2.10
2023-11-13T12:40:05.325Z,2.10
2023-11-13T12:42:35.216Z,2.30
2023-11-13T12:45:09.743Z,2.40
2023-11-13T12:47:39.041Z,2.10
2023-11-13T12:50:08.695Z,2.30
2023-11-13T12:52:39.520Z,1.80
2023-11-13T12:55:15.061Z,1.80
2023-11-13T12:57:43.613Z,2.10
2023-11-13T13:00:17.070Z,2.00
2023-11-13T13:02:51.506Z,2.00
2023-11-13T13:05:31.420Z,2.60
2023-11-13T13:08:02.979Z,2.60
2023-11-13T13:10:35.701Z,2.70
2023-11-13T13:13:06.611Z,2.70
2023-11-13T13:15:36.254Z,2.80
2023-11-13T13:20:37.110Z,2.80
2023-11-13T13:23:05.421Z,3.10
2023-11-13T13:25:37.421Z,3.40
2023-11-13T13:28:08.218Z,2.80
2023-11-13T13:30:41.325Z,2.80
2023-11-13T13:33:15.491Z,3.30
2023-11-13T13:35:45.557Z,3.30
2023-11-13T13:38:14.043Z,2.90
2023-11-13T13:40:48.675Z,2.70
2023-11-13T13:43:17.125Z,3.20
2023-11-13T13:45:47.592Z,2.60
2023-11-13T13:48:16.247Z,3.10
2023-11-13T13:50:44.285Z,3.60
2023-11-13T13:53:16.563Z,2.90
2023-11-13T13:55:45.006Z,3.00
2023-11-13T13:58:13.626Z,3.00
2023-11-13T14:00:41.964Z,3.00
2023-11-13T14:03:12.879Z,2.90
2023-11-13T14:05:47.756Z,3.40
2023-11-13T14:08:17.755Z,3.20
2023-11-13T14:10:54.056Z,2.90
2023-11-13T14:13:25.005Z,2.90
2023-11-13T14:16:03.995Z,2.90
2023-11-13T14:18:39.637Z,2.80
2023-11-13T14:21:13.937Z,2.90
2023-11-13T14:23:44.808Z,2.90
2023-11-13T14:26:19.725Z,3.30
2023-11-13T14:28:47.972Z,2.90
2023-11-13T14:31:16.189Z,3.30
2023-11-13T14:33:46.170Z,3.20
2023-11-13T14:36:16.539Z,3.40
2023-11-13T14:38:45.277Z,3.30
2023-11-13T14:41:13.480Z,2.90
2023-11-13T14:43:42.139Z,3.00
2023-11-13T14:46:10.266Z,3.00
2023-11-13T14:48:38.330Z,3.20
2023-11-13T14:51:06.926Z,3.20
2023-11-13T14:53:37.340Z,4.50
2023-11-13T14:56:06.274Z,3.50
2023-11-13T14:58:34.815Z,3.40
2023-11-13T15:01:04.218Z,3.40
2023-11-13T15:03:32.305Z,3.80
2023-11-13T15:06:00.685Z,4.40
2023-11-13T15:08:28.608Z,4.70
2023-11-13T15:10:57.109Z,4.00
2023-11-13T15:13:25.810Z,4.90
2023-11-13T15:15:54.730Z,6.10
2023-11-13T15:18:22.837Z,5.00
2023-11-13T15:20:51.334Z,5.30
2023-11-13T15:23:26.565Z,5.50
2023-11-13T15:26:07.671Z,5.50
2023-11-13T15:28:35.596Z,6.10
2023-11-13T15:31:03.642Z,6.10
2023-11-13T15:33:32.395Z,6.00
2023-11-13T15:36:00.568Z,5.30
2023-11-13T15:38:30.846Z,5.40
2023-11-13T15:40:59.575Z,5.20
2023-11-13T15:43:29.640Z,5.50
2023-11-13T15:45:57.903Z,5.50
2023-11-13T15:48:26.249Z,4.60
2023-11-13T15:50:54.140Z,4.00
2023-11-13T15:53:22.036Z,4.40
2023-11-13T15:55:50.267Z,3.90
2023-11-13T15:58:18.579Z,3.60
2023-11-13T16:00:46.441Z,3.60
2023-11-13T16:03:14.817Z,3.90
2023-11-13T16:05:43.248Z,4.20
2023-11-13T16:08:18.685Z,3.60
2023-11-13T16:10:47.244Z,3.50
2023-11-13T16:13:15.156Z,4.00
2023-11-13T16:15:43.322Z,4.30
2023-11-13T16:18:11.340Z,4.00
2023-11-13T16:20:39.322Z,5.00
2023-11-13T16:23:08.522Z,5.40
2023-11-13T16:25:36.759Z,5.70
2023-11-13T16:28:05.554Z,5.40
2023-11-13T16:30:33.715Z,6.20
2023-11-13T16:33:03.144Z,5.30
2023-11-13T16:35:34.772Z,5.70
2023-11-13T16:38:03.858Z,5.90
2023-11-13T16:40:31.948Z,7.20
2023-11-13T16:43:00.282Z,6.80
2023-11-13T16:45:28.583Z,8.00
2023-11-13T16:47:57.057Z,8.30
2023-11-13T16:50:28.064Z,14.20
2023-11-13T16:52:57.963Z,12.50
2023-11-13T16:55:25.858Z,9.80
2023-11-13T16:57:55.349Z,9.70
2023-11-13T17:05:22.522Z,8.50
2023-11-13T17:07:53.425Z,8.00
2023-11-13T17:10:21.780Z,8.20
2023-11-13T17:12:50.166Z,7.90
2023-11-13T17:15:18.316Z,9.30
2023-11-13T17:17:46.272Z,9.10
2023-11-13T17:20:16.479Z,8.70
2023-11-13T17:22:46.042Z,9.10
2023-11-13T17:25:13.952Z,8.60
2023-11-13T17:27:42.740Z,8.10
2023-11-13T17:30:13.009Z,8.20
2023-11-13T17:32:41.439Z,7.50
2023-11-13T17:35:11.275Z,9.00
2023-11-13T17:37:39.587Z,7.80
2023-11-13T17:40:09.443Z,7.70
2023-11-13T17:42:37.814Z,7.40
2023-11-13T17:45:08.767Z,7.60
2023-11-13T17:47:37.248Z,8.60
2023-11-13T17:50:10.124Z,8.10
2023-11-13T17:52:40.982Z,7.80
2023-11-13T17:55:11.793Z,8.10
2023-11-13T17:57:40.877Z,8.70
2023-11-13T18:00:13.466Z,9.30
2023-11-13T18:02:43.366Z,8.70
2023-11-13T18:05:12.471Z,8.80
2023-11-13T18:07:41.775Z,8.80
2023-11-13T18:12:45.982Z,8.10
2023-11-13T18:15:14.156Z,8.00
2023-11-13T18:17:43.053Z,8.90
2023-11-13T18:20:16.466Z,8.10
2023-11-13T18:22:45.789Z,8.30
2023-11-13T18:25:15.186Z,8.30
2023-11-13T18:27:45.374Z,7.90
2023-11-13T18:30:14.884Z,8.00
2023-11-13T18:32:43.078Z,7.60
2023-11-13T18:35:11.088Z,7.90
2023-11-13T18:37:41.076Z,7.80
2023-11-13T18:40:10.471Z,7.50
2023-11-13T18:42:39.728Z,8.20
2023-11-13T18:45:09.052Z,8.40
2023-11-13T18:47:37.135Z,8.20
2023-11-13T18:50:05.807Z,7.40
2023-11-13T18:52:34.094Z,7.80
2023-11-13T18:55:04.316Z,8.30
2023-11-13T18:57:32.419Z,8.90
2023-11-13T19:00:01.098Z,9.10
2023-11-13T19:02:29.637Z,8.70
2023-11-13T19:04:58.341Z,8.20
2023-11-13T19:07:26.719Z,9.40
2023-11-13T19:09:55.688Z,9.90
2023-11-13T19:12:23.592Z,10.20
2023-11-13T19:14:52.975Z,9.80
2023-11-13T19:17:20.830Z,10.50
2023-11-13T19:19:48.768Z,11.40
2023-11-13T19:22:18.368Z,10.10
2023-11-13T19:24:48.326Z,10.30
2023-11-13T19:27:16.790Z,10.00
2023-11-13T19:29:45.083Z,10.30
2023-11-13T19:32:13.657Z,10.70
2023-11-13T19:34:41.673Z,10.60
2023-11-13T19:37:10.007Z,10.40
2023-11-13T19:39:38.501Z,10.00
2023-11-13T19:42:06.671Z,10.10
2023-11-13T19:44:44.585Z,10.40
2023-11-13T19:47:18.773Z,10.30
2023-11-13T19:49:47.928Z,11.30
2023-11-13T19:52:16.758Z,10.90
2023-11-13T19:54:44.703Z,11.20
2023-11-13T19:57:12.700Z,10.00
2023-11-13T19:59:44.316Z,11.00
2023-11-13T20:02:13.451Z,10.90
2023-11-13T20:04:41.639Z,10.50
2023-11-13T20:07:10.108Z,10.50
2023-11-13T20:09:41.344Z,10.40
2023-11-13T20:12:11.286Z,10.60
2023-11-13T20:14:39.596Z,11.10
2023-11-13T20:17:10.012Z,10.90
2023-11-13T20:19:38.220Z,10.30
2023-11-13T20:22:06.148Z,9.90
2023-11-13T20:24:34.658Z,9.30
2023-11-13T20:27:05.843Z,9.80
2023-11-13T20:29:33.749Z,10.20
2023-11-13T20:32:01.818Z,9.40
2023-11-13T20:34:31.376Z,9.50
2023-11-13T20:36:59.532Z,10.00
2023-11-13T20:39:28.270Z,9.80
2023-11-13T20:41:58.843Z,9.60
2023-11-13T20:44:30.138Z,9.50
2023-11-13T20:46:58.505Z,9.40
2023-11-13T20:49:26.631Z,10.10
2023-11-13T20:51:54.823Z,10.20
2023-11-13T20:54:22.753Z,11.00
2023-11-13T20:56:51.613Z,12.00
2023-11-13T20:59:19.786Z,17.60
2023-11-13T21:01:48.393Z,14.00
2023-11-13T21:04:18.864Z,14.20
2023-11-13T21:06:47.106Z,14.40
2023-11-13T21:09:16.809Z,15.80
2023-11-13T21:11:45.505Z,12.00
2023-11-13T21:14:13.847Z,12.50
2023-11-13T21:16:41.732Z,11.40
2023-11-13T21:19:09.840Z,10.40
2023-11-13T21:21:37.669Z,10.10
2023-11-13T21:24:10.314Z,10.10
2023-11-13T21:26:38.181Z,9.20
2023-11-13T21:29:06.102Z,8.90
2023-11-13T21:31:34.857Z,8.90
2023-11-13T21:34:02.860Z,8.90
2023-11-13T21:36:30.628Z,9.20
2023-11-13T21:38:58.880Z,8.20
2023-11-13T21:41:26.977Z,8.40
2023-11-13T21:43:55.311Z,8.50
2023-11-13T21:46:23.576Z,8.70
2023-11-13T21:48:51.707Z,9.20
2023-11-13T21:51:20.284Z,8.60
2023-11-13T21:53:48.408Z,8.50
2023-11-13T21:56:16.255Z,9.10
2023-11-13T21:58:44.110Z,8.80
2023-11-13T22:01:15.402Z,8.30
2023-11-13T22:03:44.318Z,9.10
2023-11-13T22:06:12.996Z,8.80
2023-11-13T22:08:40.982Z,9.00
2023-11-13T22:11:09.465Z,9.40
2023-11-13T22:13:37.660Z,9.60
2023-11-13T22:16:06.653Z,9.40
2023-11-13T22:18:35.205Z,10.50
2023-11-13T22:21:03.713Z,11.00
2023-11-13T22:23:33.297Z,10.70
2023-11-13T22:26:01.391Z,10.00
2023-11-13T22:28:29.548Z,13.20
2023-11-13T22:30:57.685Z,13.80
2023-11-13T22:33:27.036Z,10.50
2023-11-13T22:35:54.852Z,10.80
2023-11-13T22:38:22.859Z,11.60
2023-11-13T22:40:50.730Z,9.90
2023-11-13T22:43:18.629Z,11.60
2023-11-13T22:45:46.836Z,9.60
2023-11-13T22:48:14.842Z,8.90
2023-11-13T22:50:42.712Z,8.70
2023-11-13T22:53:10.721Z,9.00
2023-11-13T22:55:38.750Z,8.50
2023-11-13T22:58:06.886Z,8.50
2023-11-13T23:00:38.242Z,8.20
2023-11-13T23:03:11.648Z,8.40
2023-11-13T23:05:40.290Z,8.20
2023-11-13T23:08:08.122Z,8.50
2023-11-13T23:10:36.125Z,8.40
2023-11-13T23:13:04.337Z,9.20
2023-11-13T23:15:33.060Z,8.00
2023-11-13T23:18:01.086Z,7.40
2023-11-13T23:20:30.518Z,7.80
2023-11-13T23:22:58.355Z,7.00
2023-11-13T23:25:28.667Z,6.80
2023-11-13T23:27:57.178Z,7.00
2023-11-13T23:30:25.078Z,6.70
2023-11-13T23:32:53.155Z,6.70
2023-11-13T23:35:21.174Z,6.60
2023-11-13T23:37:49.480Z,5.80
2023-11-13T23:40:17.422Z,6.00
2023-11-13T23:42:45.560Z,6.10
2023-11-13T23:45:13.442Z,5.40
2023-11-13T23:47:41.697Z,6.00
2023-11-13T23:50:12.651Z,6.10
2023-11-13T23:52:41.043Z,5.50
2023-11-13T23:55:09.701Z,4.90
2023-11-13T23:57:37.791Z,5.80
